sensor_id;sensor_type;location;lat;lon;timestamp;P1;durP1;ratioP1;P2;durP2;ratioP2
30235;SDS011;17048;53.092;8.746;2023-09-19T00:00:59;5.97;;;2.72;;
30235;SDS011;17048;53.092;8.746;2023-09-19T00:03:27;8.25;;;3.17;;
30235;SDS011;17048;53.092;8.746;2023-09-19T00:06:11;7.80;;;3.20;;
30235;SDS011;17048;53.092;8.746;2023-09-19T00:08:46;7.70;;;3.15;;
30235;SDS011;17048;53.092;8.746;2023-09-19T00:11:16;10.60;;;2.95;;
30235;SDS011;17048;53.092;8.746;2023-09-19T00:13:53;9.38;;;3.30;;
30235;SDS011;17048;53.092;8.746;2023-09-19T00:16:21;7.75;;;2.80;;
30235;SDS011;17048;53.092;8.746;2023-09-19T00:18:48;7.78;;;2.67;;
30235;SDS011;17048;53.092;8.746;2023-09-19T00:21:16;6.43;;;2.60;;
30235;SDS011;17048;53.092;8.746;2023-09-19T00:23:47;9.02;;;3.03;;
30235;SDS011;17048;53.092;8.746;2023-09-19T00:26:31;9.02;;;3.13;;
30235;SDS011;17048;53.092;8.746;2023-09-19T00:29:12;9.75;;;3.13;;
30235;SDS011;17048;53.092;8.746;2023-09-19T00:31:44;10.88;;;2.63;;
30235;SDS011;17048;53.092;8.746;2023-09-19T00:34:13;9.43;;;2.55;;
30235;SDS011;17048;53.092;8.746;2023-09-19T00:36:48;10.35;;;2.92;;
30235;SDS011;17048;53.092;8.746;2023-09-19T00:39:16;7.55;;;3.03;;
30235;SDS011;17048;53.092;8.746;2023-09-19T00:41:46;6.15;;;2.40;;
30235;SDS011;17048;53.092;8.746;2023-09-19T00:44:18;6.93;;;2.50;;
30235;SDS011;17048;53.092;8.746;2023-09-19T00:46:51;9.13;;;2.83;;
30235;SDS011;17048;53.092;8.746;2023-09-19T00:49:20;7.53;;;2.85;;
30235;SDS011;17048;53.092;8.746;2023-09-19T00:51:50;5.72;;;2.50;;
30235;SDS011;17048;53.092;8.746;2023-09-19T00:54:18;7.32;;;2.30;;
30235;SDS011;17048;53.092;8.746;2023-09-19T00:56:49;8.15;;;2.08;;
30235;SDS011;17048;53.092;8.746;2023-09-19T00:59:20;6.53;;;2.38;;
30235;SDS011;17048;53.092;8.746;2023-09-19T01:01:54;8.15;;;2.70;;
30235;SDS011;17048;53.092;8.746;2023-09-19T01:04:23;5.65;;;2.08;;
30235;SDS011;17048;53.092;8.746;2023-09-19T01:06:52;7.50;;;2.30;;
30235;SDS011;17048;53.092;8.746;2023-09-19T01:09:20;9.68;;;2.33;;
30235;SDS011;17048;53.092;8.746;2023-09-19T01:11:50;8.38;;;2.30;;
30235;SDS011;17048;53.092;8.746;2023-09-19T01:17:00;5.25;;;2.00;;
30235;SDS011;17048;53.092;8.746;2023-09-19T01:22:00;4.05;;;2.20;;
30235;SDS011;17048;53.092;8.746;2023-09-19T01:27:49;6.93;;;2.08;;
30235;SDS011;17048;53.092;8.746;2023-09-19T01:30:21;7.72;;;2.13;;
30235;SDS011;17048;53.092;8.746;2023-09-19T01:32:52;6.65;;;1.85;;
30235;SDS011;17048;53.092;8.746;2023-09-19T01:35:24;3.97;;;1.70;;
30235;SDS011;17048;53.092;8.746;2023-09-19T01:37:51;7.47;;;1.67;;
30235;SDS011;17048;53.092;8.746;2023-09-19T01:40:23;1.90;;;1.02;;
30235;SDS011;17048;53.092;8.746;2023-09-19T01:43:09;3.92;;;1.17;;
30235;SDS011;17048;53.092;8.746;2023-09-19T01:50:38;3.97;;;1.15;;
30235;SDS011;17048;53.092;8.746;2023-09-19T01:55:48;6.00;;;2.17;;
30235;SDS011;17048;53.092;8.746;2023-09-19T02:01:05;2.28;;;1.08;;
30235;SDS011;17048;53.092;8.746;2023-09-19T02:03:35;5.45;;;1.42;;
30235;SDS011;17048;53.092;8.746;2023-09-19T02:06:06;4.78;;;1.52;;
30235;SDS011;17048;53.092;8.746;2023-09-19T02:08:39;4.40;;;1.10;;
30235;SDS011;17048;53.092;8.746;2023-09-19T02:11:07;3.58;;;1.40;;
30235;SDS011;17048;53.092;8.746;2023-09-19T02:13:35;2.53;;;1.25;;
30235;SDS011;17048;53.092;8.746;2023-09-19T02:16:05;3.03;;;0.82;;
30235;SDS011;17048;53.092;8.746;2023-09-19T02:18:36;6.82;;;1.17;;
30235;SDS011;17048;53.092;8.746;2023-09-19T02:21:19;1.77;;;0.90;;
30235;SDS011;17048;53.092;8.746;2023-09-19T02:23:49;2.72;;;1.05;;
30235;SDS011;17048;53.092;8.746;2023-09-19T02:26:16;3.72;;;1.50;;
30235;SDS011;17048;53.092;8.746;2023-09-19T02:28:48;4.68;;;1.35;;
30235;SDS011;17048;53.092;8.746;2023-09-19T02:31:20;3.95;;;1.20;;
30235;SDS011;17048;53.092;8.746;2023-09-19T02:33:48;4.45;;;1.10;;
30235;SDS011;17048;53.092;8.746;2023-09-19T02:36:15;4.63;;;1.13;;
30235;SDS011;17048;53.092;8.746;2023-09-19T02:38:44;2.17;;;1.00;;
30235;SDS011;17048;53.092;8.746;2023-09-19T02:41:12;4.53;;;1.25;;
30235;SDS011;17048;53.092;8.746;2023-09-19T02:43:41;6.25;;;1.25;;
30235;SDS011;17048;53.092;8.746;2023-09-19T02:46:11;3.63;;;1.10;;
30235;SDS011;17048;53.092;8.746;2023-09-19T02:48:43;5.82;;;1.05;;
30235;SDS011;17048;53.092;8.746;2023-09-19T02:51:11;8.50;;;1.50;;
30235;SDS011;17048;53.092;8.746;2023-09-19T02:53:38;3.05;;;1.20;;
30235;SDS011;17048;53.092;8.746;2023-09-19T02:56:23;8.18;;;1.35;;
30235;SDS011;17048;53.092;8.746;2023-09-19T02:58:53;8.98;;;1.33;;
30235;SDS011;17048;53.092;8.746;2023-09-19T03:01:22;9.88;;;1.48;;
30235;SDS011;17048;53.092;8.746;2023-09-19T03:03:49;7.32;;;1.67;;
30235;SDS011;17048;53.092;8.746;2023-09-19T03:06:16;5.75;;;1.33;;
30235;SDS011;17048;53.092;8.746;2023-09-19T03:08:49;3.83;;;1.40;;
30235;SDS011;17048;53.092;8.746;2023-09-19T03:11:23;5.47;;;1.60;;
30235;SDS011;17048;53.092;8.746;2023-09-19T03:13:52;8.55;;;1.50;;
30235;SDS011;17048;53.092;8.746;2023-09-19T03:16:19;4.45;;;1.45;;
30235;SDS011;17048;53.092;8.746;2023-09-19T03:18:51;3.95;;;1.48;;
30235;SDS011;17048;53.092;8.746;2023-09-19T03:21:19;5.47;;;1.40;;
30235;SDS011;17048;53.092;8.746;2023-09-19T03:23:48;9.90;;;1.70;;
30235;SDS011;17048;53.092;8.746;2023-09-19T03:26:15;9.32;;;2.05;;
30235;SDS011;17048;53.092;8.746;2023-09-19T03:28:43;6.28;;;1.90;;
30235;SDS011;17048;53.092;8.746;2023-09-19T03:31:11;7.80;;;1.58;;
30235;SDS011;17048;53.092;8.746;2023-09-19T03:33:52;3.95;;;1.30;;
30235;SDS011;17048;53.092;8.746;2023-09-19T03:36:19;10.73;;;1.77;;
30235;SDS011;17048;53.092;8.746;2023-09-19T03:39:11;9.20;;;1.98;;
30235;SDS011;17048;53.092;8.746;2023-09-19T03:41:57;7.75;;;1.92;;
30235;SDS011;17048;53.092;8.746;2023-09-19T03:44:38;12.15;;;1.70;;
30235;SDS011;17048;53.092;8.746;2023-09-19T03:47:22;8.20;;;2.00;;
30235;SDS011;17048;53.092;8.746;2023-09-19T03:50:07;7.95;;;2.08;;
30235;SDS011;17048;53.092;8.746;2023-09-19T03:53:20;10.75;;;2.45;;
30235;SDS011;17048;53.092;8.746;2023-09-19T03:56:03;9.27;;;2.03;;
30235;SDS011;17048;53.092;8.746;2023-09-19T03:58:56;8.60;;;1.67;;
30235;SDS011;17048;53.092;8.746;2023-09-19T04:01:48;6.45;;;1.73;;
30235;SDS011;17048;53.092;8.746;2023-09-19T04:04:30;5.65;;;1.50;;
30235;SDS011;17048;53.092;8.746;2023-09-19T04:07:11;8.93;;;1.88;;
30235;SDS011;17048;53.092;8.746;2023-09-19T04:12:30;15.32;;;2.50;;
30235;SDS011;17048;53.092;8.746;2023-09-19T04:15:17;9.35;;;1.70;;
30235;SDS011;17048;53.092;8.746;2023-09-19T04:17:58;11.35;;;2.28;;
30235;SDS011;17048;53.092;8.746;2023-09-19T04:20:51;0.82;;;0.17;;
30235;SDS011;17048;53.092;8.746;2023-09-19T04:23:34;8.63;;;1.75;;
30235;SDS011;17048;53.092;8.746;2023-09-19T04:26:14;0.10;;;0.10;;
30235;SDS011;17048;53.092;8.746;2023-09-19T04:29:01;9.93;;;1.83;;
30235;SDS011;17048;53.092;8.746;2023-09-19T04:31:32;7.30;;;2.20;;
30235;SDS011;17048;53.092;8.746;2023-09-19T04:34:03;11.35;;;2.05;;
30235;SDS011;17048;53.092;8.746;2023-09-19T04:36:30;10.18;;;2.67;;
30235;SDS011;17048;53.092;8.746;2023-09-19T04:39:02;8.90;;;1.80;;
30235;SDS011;17048;53.092;8.746;2023-09-19T04:41:31;9.13;;;1.90;;
30235;SDS011;17048;53.092;8.746;2023-09-19T04:43:58;7.07;;;2.28;;
30235;SDS011;17048;53.092;8.746;2023-09-19T04:46:28;12.98;;;1.95;;
30235;SDS011;17048;53.092;8.746;2023-09-19T04:48:56;7.28;;;1.77;;
30235;SDS011;17048;53.092;8.746;2023-09-19T04:51:30;17.17;;;2.20;;
30235;SDS011;17048;53.092;8.746;2023-09-19T04:54:01;8.95;;;2.28;;
30235;SDS011;17048;53.092;8.746;2023-09-19T04:56:34;5.82;;;1.65;;
30235;SDS011;17048;53.092;8.746;2023-09-19T04:59:49;7.63;;;1.88;;
30235;SDS011;17048;53.092;8.746;2023-09-19T05:02:33;9.50;;;2.33;;
30235;SDS011;17048;53.092;8.746;2023-09-19T05:05:23;11.15;;;2.22;;
30235;SDS011;17048;53.092;8.746;2023-09-19T05:08:13;14.70;;;2.22;;
30235;SDS011;17048;53.092;8.746;2023-09-19T05:11:18;11.52;;;2.10;;
30235;SDS011;17048;53.092;8.746;2023-09-19T05:17:58;8.10;;;1.92;;
30235;SDS011;17048;53.092;8.746;2023-09-19T05:20:39;10.88;;;2.25;;
30235;SDS011;17048;53.092;8.746;2023-09-19T05:26:15;9.30;;;2.25;;
30235;SDS011;17048;53.092;8.746;2023-09-19T05:34:21;11.40;;;2.38;;
30235;SDS011;17048;53.092;8.746;2023-09-19T10:03:41;8.65;;;1.70;;
30235;SDS011;17048;53.092;8.746;2023-09-19T10:15:24;10.35;;;1.10;;
30235;SDS011;17048;53.092;8.746;2023-09-19T11:00:13;10.73;;;1.92;;
30235;SDS011;17048;53.092;8.746;2023-09-19T11:06:09;9.23;;;2.13;;
30235;SDS011;17048;53.092;8.746;2023-09-19T11:24:39;5.82;;;1.77;;
30235;SDS011;17048;53.092;8.746;2023-09-19T12:12:30;9.53;;;2.13;;
30235;SDS011;17048;53.092;8.746;2023-09-19T12:28:37;5.68;;;1.40;;
30235;SDS011;17048;53.092;8.746;2023-09-19T14:06:28;7.90;;;1.53;;
30235;SDS011;17048;53.092;8.746;2023-09-19T14:12:03;13.10;;;2.28;;
30235;SDS011;17048;53.092;8.746;2023-09-19T14:14:54;6.90;;;1.90;;
30235;SDS011;17048;53.092;8.746;2023-09-19T14:17:49;12.18;;;1.90;;
30235;SDS011;17048;53.092;8.746;2023-09-19T14:23:24;6.20;;;1.58;;
30235;SDS011;17048;53.092;8.746;2023-09-19T14:26:10;4.30;;;1.60;;
30235;SDS011;17048;53.092;8.746;2023-09-19T14:39:24;8.70;;;1.70;;
30235;SDS011;17048;53.092;8.746;2023-09-19T14:42:25;7.78;;;2.03;;
30235;SDS011;17048;53.092;8.746;2023-09-19T14:45:32;11.15;;;1.85;;
30235;SDS011;17048;53.092;8.746;2023-09-19T14:48:34;5.43;;;1.33;;
30235;SDS011;17048;53.092;8.746;2023-09-19T14:51:31;9.00;;;2.25;;
30235;SDS011;17048;53.092;8.746;2023-09-19T14:54:21;8.93;;;1.90;;
30235;SDS011;17048;53.092;8.746;2023-09-19T14:57:04;9.15;;;1.40;;
30235;SDS011;17048;53.092;8.746;2023-09-19T15:08:27;5.80;;;1.55;;
30235;SDS011;17048;53.092;8.746;2023-09-19T15:17:40;10.25;;;1.95;;
30235;SDS011;17048;53.092;8.746;2023-09-19T15:20:25;8.82;;;1.50;;
30235;SDS011;17048;53.092;8.746;2023-09-19T15:37:40;7.80;;;1.70;;
30235;SDS011;17048;53.092;8.746;2023-09-19T15:40:29;9.23;;;2.00;;
30235;SDS011;17048;53.092;8.746;2023-09-19T15:56:19;6.07;;;1.70;;
30235;SDS011;17048;53.092;8.746;2023-09-19T16:26:07;7.05;;;1.02;;
30235;SDS011;17048;53.092;8.746;2023-09-19T16:29:19;10.98;;;1.50;;
30235;SDS011;17048;53.092;8.746;2023-09-19T16:38:58;9.23;;;1.40;;
30235;SDS011;17048;53.092;8.746;2023-09-19T16:45:23;6.97;;;1.80;;
30235;SDS011;17048;53.092;8.746;2023-09-19T16:48:10;10.45;;;1.40;;
30235;SDS011;17048;53.092;8.746;2023-09-19T16:53:39;6.87;;;1.60;;
30235;SDS011;17048;53.092;8.746;2023-09-19T16:56:38;12.95;;;1.42;;
30235;SDS011;17048;53.092;8.746;2023-09-19T17:07:08;10.13;;;1.20;;
30235;SDS011;17048;53.092;8.746;2023-09-19T17:12:49;4.53;;;1.03;;
30235;SDS011;17048;53.092;8.746;2023-09-19T17:15:34;11.80;;;2.50;;
30235;SDS011;17048;53.092;8.746;2023-09-19T17:24:58;5.68;;;1.65;;
30235;SDS011;17048;53.092;8.746;2023-09-19T17:31:18;3.58;;;0.93;;
30235;SDS011;17048;53.092;8.746;2023-09-19T17:34:32;8.73;;;0.82;;
30235;SDS011;17048;53.092;8.746;2023-09-19T17:37:24;3.30;;;1.00;;
30235;SDS011;17048;53.092;8.746;2023-09-19T17:40:23;4.38;;;1.10;;
30235;SDS011;17048;53.092;8.746;2023-09-19T17:43:16;4.50;;;1.17;;
30235;SDS011;17048;53.092;8.746;2023-09-19T17:45:57;4.22;;;1.02;;
30235;SDS011;17048;53.092;8.746;2023-09-19T17:48:57;6.55;;;1.05;;
30235;SDS011;17048;53.092;8.746;2023-09-19T17:54:48;10.25;;;1.02;;
30235;SDS011;17048;53.092;8.746;2023-09-19T18:00:26;6.77;;;1.10;;
30235;SDS011;17048;53.092;8.746;2023-09-19T18:03:10;8.07;;;1.13;;
30235;SDS011;17048;53.092;8.746;2023-09-19T18:15:01;8.10;;;1.20;;
30235;SDS011;17048;53.092;8.746;2023-09-19T18:18:01;8.73;;;1.13;;
30235;SDS011;17048;53.092;8.746;2023-09-19T18:21:03;9.23;;;1.10;;
30235;SDS011;17048;53.092;8.746;2023-09-19T18:23:59;7.03;;;1.10;;
30235;SDS011;17048;53.092;8.746;2023-09-19T18:26:49;3.75;;;0.93;;
30235;SDS011;17048;53.092;8.746;2023-09-19T18:33:00;7.50;;;1.27;;
30235;SDS011;17048;53.092;8.746;2023-09-19T18:36:00;7.40;;;1.23;;
30235;SDS011;17048;53.092;8.746;2023-09-19T18:41:25;5.88;;;0.80;;
30235;SDS011;17048;53.092;8.746;2023-09-19T19:01:47;4.88;;;1.27;;
30235;SDS011;17048;53.092;8.746;2023-09-19T19:04:33;6.88;;;0.82;;
30235;SDS011;17048;53.092;8.746;2023-09-19T19:10:16;6.45;;;1.08;;
30235;SDS011;17048;53.092;8.746;2023-09-19T19:16:00;4.95;;;0.88;;
30235;SDS011;17048;53.092;8.746;2023-09-19T19:22:06;4.57;;;1.00;;
30235;SDS011;17048;53.092;8.746;2023-09-19T19:24:42;3.85;;;1.20;;
30235;SDS011;17048;53.092;8.746;2023-09-19T19:27:16;5.93;;;0.98;;
30235;SDS011;17048;53.092;8.746;2023-09-19T19:30:05;4.88;;;0.80;;
30235;SDS011;17048;53.092;8.746;2023-09-19T19:35:44;6.05;;;0.90;;
30235;SDS011;17048;53.092;8.746;2023-09-19T19:51:48;2.15;;;0.93;;
30235;SDS011;17048;53.092;8.746;2023-09-19T20:01:17;4.03;;;1.00;;
30235;SDS011;17048;53.092;8.746;2023-09-19T20:04:04;3.85;;;1.20;;
30235;SDS011;17048;53.092;8.746;2023-09-19T20:06:32;4.80;;;0.95;;
30235;SDS011;17048;53.092;8.746;2023-09-19T20:09:00;8.88;;;1.00;;
30235;SDS011;17048;53.092;8.746;2023-09-19T20:11:27;8.57;;;1.27;;
30235;SDS011;17048;53.092;8.746;2023-09-19T20:13:56;4.80;;;1.00;;
30235;SDS011;17048;53.092;8.746;2023-09-19T20:16:25;6.32;;;1.02;;
30235;SDS011;17048;53.092;8.746;2023-09-19T20:19:02;8.90;;;1.05;;
30235;SDS011;17048;53.092;8.746;2023-09-19T20:21:33;8.20;;;1.10;;
30235;SDS011;17048;53.092;8.746;2023-09-19T20:24:05;4.78;;;1.05;;
30235;SDS011;17048;53.092;8.746;2023-09-19T20:26:43;5.32;;;1.10;;
30235;SDS011;17048;53.092;8.746;2023-09-19T20:29:11;5.95;;;2.53;;
30235;SDS011;17048;53.092;8.746;2023-09-19T20:31:38;4.05;;;1.20;;
30235;SDS011;17048;53.092;8.746;2023-09-19T20:34:05;4.65;;;1.08;;
30235;SDS011;17048;53.092;8.746;2023-09-19T20:36:34;7.00;;;1.10;;
30235;SDS011;17048;53.092;8.746;2023-09-19T20:39:21;13.07;;;1.48;;
30235;SDS011;17048;53.092;8.746;2023-09-19T20:41:50;3.88;;;0.98;;
30235;SDS011;17048;53.092;8.746;2023-09-19T20:44:17;7.57;;;1.88;;
30235;SDS011;17048;53.092;8.746;2023-09-19T20:46:46;5.45;;;1.17;;
30235;SDS011;17048;53.092;8.746;2023-09-19T20:49:17;6.22;;;1.40;;
30235;SDS011;17048;53.092;8.746;2023-09-19T20:51:44;4.10;;;1.70;;
30235;SDS011;17048;53.092;8.746;2023-09-19T20:54:12;9.18;;;1.73;;
30235;SDS011;17048;53.092;8.746;2023-09-19T20:56:43;5.82;;;1.45;;
30235;SDS011;17048;53.092;8.746;2023-09-19T20:59:13;5.05;;;1.50;;
30235;SDS011;17048;53.092;8.746;2023-09-19T21:01:44;9.23;;;1.70;;
30235;SDS011;17048;53.092;8.746;2023-09-19T21:04:27;7.28;;;1.17;;
30235;SDS011;17048;53.092;8.746;2023-09-19T21:06:57;3.47;;;1.25;;
30235;SDS011;17048;53.092;8.746;2023-09-19T21:09:25;2.20;;;1.02;;
30235;SDS011;17048;53.092;8.746;2023-09-19T21:11:53;9.27;;;1.70;;
30235;SDS011;17048;53.092;8.746;2023-09-19T21:14:21;4.82;;;1.27;;
30235;SDS011;17048;53.092;8.746;2023-09-19T21:16:50;7.10;;;1.30;;
30235;SDS011;17048;53.092;8.746;2023-09-19T21:19:17;6.57;;;1.38;;
30235;SDS011;17048;53.092;8.746;2023-09-19T21:22:04;7.28;;;1.13;;
30235;SDS011;17048;53.092;8.746;2023-09-19T21:24:31;10.40;;;1.30;;
30235;SDS011;17048;53.092;8.746;2023-09-19T21:27:02;4.75;;;1.80;;
30235;SDS011;17048;53.092;8.746;2023-09-19T21:29:33;12.68;;;1.75;;
30235;SDS011;17048;53.092;8.746;2023-09-19T21:32:01;9.10;;;1.40;;
30235;SDS011;17048;53.092;8.746;2023-09-19T21:34:30;12.15;;;1.60;;
30235;SDS011;17048;53.092;8.746;2023-09-19T21:36:58;7.05;;;1.30;;
30235;SDS011;17048;53.092;8.746;2023-09-19T21:39:25;6.88;;;1.65;;
30235;SDS011;17048;53.092;8.746;2023-09-19T21:42:11;9.55;;;1.83;;
30235;SDS011;17048;53.092;8.746;2023-09-19T21:44:41;7.57;;;1.65;;
30235;SDS011;17048;53.092;8.746;2023-09-19T21:47:11;6.15;;;1.75;;
30235;SDS011;17048;53.092;8.746;2023-09-19T21:49:39;5.55;;;1.15;;
30235;SDS011;17048;53.092;8.746;2023-09-19T21:52:16;4.97;;;1.23;;
30235;SDS011;17048;53.092;8.746;2023-09-19T21:54:44;7.30;;;1.35;;
30235;SDS011;17048;53.092;8.746;2023-09-19T21:57:11;3.85;;;0.98;;
30235;SDS011;17048;53.092;8.746;2023-09-19T21:59:40;5.57;;;1.08;;
30235;SDS011;17048;53.092;8.746;2023-09-19T22:02:09;5.85;;;1.23;;
30235;SDS011;17048;53.092;8.746;2023-09-19T22:04:38;6.70;;;1.27;;
30235;SDS011;17048;53.092;8.746;2023-09-19T22:07:07;6.05;;;1.10;;
30235;SDS011;17048;53.092;8.746;2023-09-19T22:09:35;11.15;;;1.38;;
30235;SDS011;17048;53.092;8.746;2023-09-19T22:12:03;3.50;;;1.00;;
30235;SDS011;17048;53.092;8.746;2023-09-19T22:14:33;3.80;;;1.00;;
30235;SDS011;17048;53.092;8.746;2023-09-19T22:17:02;5.00;;;1.10;;
30235;SDS011;17048;53.092;8.746;2023-09-19T22:19:32;3.67;;;1.20;;
30235;SDS011;17048;53.092;8.746;2023-09-19T22:21:59;5.13;;;1.23;;
30235;SDS011;17048;53.092;8.746;2023-09-19T22:24:29;8.00;;;1.35;;
30235;SDS011;17048;53.092;8.746;2023-09-19T22:26:57;8.20;;;1.02;;
30235;SDS011;17048;53.092;8.746;2023-09-19T22:29:27;6.65;;;1.42;;
30235;SDS011;17048;53.092;8.746;2023-09-19T22:32:03;3.75;;;1.10;;
30235;SDS011;17048;53.092;8.746;2023-09-19T22:34:34;3.75;;;1.23;;
30235;SDS011;17048;53.092;8.746;2023-09-19T22:37:01;5.65;;;1.30;;
30235;SDS011;17048;53.092;8.746;2023-09-19T22:39:29;4.43;;;1.35;;
30235;SDS011;17048;53.092;8.746;2023-09-19T22:42:05;3.50;;;1.25;;
30235;SDS011;17048;53.092;8.746;2023-09-19T22:44:40;5.20;;;1.30;;
30235;SDS011;17048;53.092;8.746;2023-09-19T22:47:13;6.93;;;1.65;;
30235;SDS011;17048;53.092;8.746;2023-09-19T22:49:42;5.18;;;1.02;;
30235;SDS011;17048;53.092;8.746;2023-09-19T22:52:13;7.80;;;1.48;;
30235;SDS011;17048;53.092;8.746;2023-09-19T22:54:43;4.80;;;1.20;;
30235;SDS011;17048;53.092;8.746;2023-09-19T22:57:10;2.63;;;1.08;;
30235;SDS011;17048;53.092;8.746;2023-09-19T22:59:39;4.95;;;1.17;;
30235;SDS011;17048;53.092;8.746;2023-09-19T23:02:08;2.72;;;1.08;;
30235;SDS011;17048;53.092;8.746;2023-09-19T23:04:53;7.13;;;1.35;;
30235;SDS011;17048;53.092;8.746;2023-09-19T23:07:27;2.58;;;0.88;;
30235;SDS011;17048;53.092;8.746;2023-09-19T23:09:54;4.15;;;1.00;;
30235;SDS011;17048;53.092;8.746;2023-09-19T23:12:25;6.15;;;1.20;;
30235;SDS011;17048;53.092;8.746;2023-09-19T23:14:54;5.50;;;1.05;;
30235;SDS011;17048;53.092;8.746;2023-09-19T23:17:22;5.85;;;1.13;;
30235;SDS011;17048;53.092;8.746;2023-09-19T23:19:50;3.60;;;1.15;;
30235;SDS011;17048;53.092;8.746;2023-09-19T23:22:26;5.18;;;1.33;;
30235;SDS011;17048;53.092;8.746;2023-09-19T23:24:55;6.68;;;1.10;;
30235;SDS011;17048;53.092;8.746;2023-09-19T23:27:36;4.93;;;0.95;;
30235;SDS011;17048;53.092;8.746;2023-09-19T23:30:07;4.25;;;1.00;;
30235;SDS011;17048;53.092;8.746;2023-09-19T23:32:43;5.70;;;1.60;;
30235;SDS011;17048;53.092;8.746;2023-09-19T23:35:20;6.88;;;1.40;;
30235;SDS011;17048;53.092;8.746;2023-09-19T23:37:49;8.10;;;1.40;;
30235;SDS011;17048;53.092;8.746;2023-09-19T23:40:17;9.75;;;1.63;;
30235;SDS011;17048;53.092;8.746;2023-09-19T23:42:47;5.70;;;1.38;;
30235;SDS011;17048;53.092;8.746;2023-09-19T23:45:15;6.03;;;1.38;;
30235;SDS011;17048;53.092;8.746;2023-09-19T23:47:53;3.47;;;1.17;;
30235;SDS011;17048;53.092;8.746;2023-09-19T23:50:21;7.65;;;1.20;;
30235;SDS011;17048;53.092;8.746;2023-09-19T23:52:52;4.07;;;1.13;;
30235;SDS011;17048;53.092;8.746;2023-09-19T23:55:19;5.30;;;1.48;;
30235;SDS011;17048;53.092;8.746;2023-09-19T23:57:55;4.00;;;1.23;;
